KRTN/RTN METAR and TAF weather

Enter ICAO airport designator
Station Type Date Time Source
KRTN METAR 2020/10/29 16:53 UTC NOAA

KRTN 291653Z AUTO 20008KT 10SM CLR 09/M01 A3028 RMK AO2 SLP223 T00941011


Station Type Date Time Source
KRTN Decoded METAR 2020/10/29 16:53 UTC NOAA

Raton, Raton Municipal \ Crews Field Airport, NM, United States (KRTN) 36-44-31N 104-39-28W 1939M
Oct 29, 2020 - 12:53 PM EDT / 2020.10.29 1653 UTC
Wind: from the SSW (200 degrees) at 9 MPH (8 KT):0
Visibility: 10 mile(s):0
Sky conditions: clear
Temperature: 48.9 F (9.4 C)
Dew Point: 30.0 F (-1.1 C)
Relative Humidity: 47%
Pressure (altimeter): 30.28 in. Hg (1025 hPa)
ob: KRTN 291653Z AUTO 20008KT 10SM CLR 09/M01 A3028 RMK AO2 SLP223 T00941011
cycle: 17

Station Type Date Time Source
KRTN TAF UTC NOAA

Error!

Example: see airport list